Time;durP1;ratioP1;P1;durP2;ratioP2;P2;SDS_P1;SDS_P2;PMS_P1;PMS_P2;Temp;Humidity;BMP_temperature;BMP_pressure;BME280_temperature;BME280_humidity;BME280_pressure;Samples;Min_cycle;Max_cycle;Signal;HPM_P1;HPM_P2
2023/08/24 00:01:56;;;;;;;;;12.00;11.75;;;;;-143.90;84.71;74816.66;4935413;27;104095;-74
2023/08/24 00:04:22;;;;;;;;;12.00;11.50;;;;;-143.90;84.58;74826.97;4938608;28;104495;-74
2023/08/24 00:06:49;;;;;;;;;9.75;9.75;;;;;-143.90;83.88;74816.66;4946874;28;102057;-74
2023/08/24 00:09:16;;;;;;;;;7.75;7.25;;;;;-143.90;83.73;74812.50;4951027;27;102623;-74
2023/08/24 00:11:42;;;;;;;;;12.25;11.25;;;;;-143.90;83.88;74824.91;4956089;28;104209;-73
2023/08/24 00:14:09;;;;;;;;;14.00;13.75;;;;;-143.90;83.76;74833.19;4947089;28;102102;-74
2023/08/24 00:16:36;;;;;;;;;10.00;10.00;;;;;-143.90;83.78;74829.03;4944652;28;102128;-74
2023/08/24 00:19:03;;;;;;;;;10.25;9.25;;;;;-143.90;83.45;74833.19;4944913;28;102397;-74
2023/08/24 00:21:30;;;;;;;;;11.00;11.00;;;;;-143.90;83.43;74831.13;4952839;28;103993;-74
2023/08/24 00:23:56;;;;;;;;;12.25;12.00;;;;;-143.90;83.83;74837.31;4951224;28;103057;-74
2023/08/24 00:26:23;;;;;;;;;13.25;12.50;;;;;-143.90;83.54;74837.31;4941382;28;104246;-74
2023/08/24 00:28:50;;;;;;;;;10.75;10.25;;;;;-143.90;84.09;74843.53;4944970;28;102404;-74
2023/08/24 00:31:17;;;;;;;;;9.50;9.00;;;;;-143.90;84.02;74845.59;4950061;28;103929;-74
2023/08/24 00:33:43;;;;;;;;;6.50;5.00;;;;;-143.90;83.74;74849.72;4956952;28;104280;-74
2023/08/24 00:36:10;;;;;;;;;10.50;9.75;;;;;-143.90;83.54;74845.59;4961032;27;101999;-74
2023/08/24 00:38:37;;;;;;;;;10.75;10.00;;;;;-143.90;82.79;74849.72;4949929;28;102466;-76
2023/08/24 00:41:04;;;;;;;;;8.00;8.00;;;;;-143.90;83.24;74849.72;4936960;28;104518;-73
2023/08/24 00:43:31;;;;;;;;;10.50;9.75;;;;;-143.90;82.83;74862.13;4939134;27;103928;-74
2023/08/24 00:46:01;;;;;;;;;12.00;11.25;;;;;-143.90;83.05;74870.38;4937656;28;101982;-74
2023/08/24 00:48:29;;;;;;;;;11.50;11.50;;;;;-143.90;83.46;74876.59;4942784;28;102770;-74
2023/08/24 00:50:59;;;;;;;;;12.25;12.00;;;;;-143.90;84.52;74895.19;4945121;28;103955;-74
2023/08/24 00:53:27;;;;;;;;;12.25;11.25;;;;;-143.90;85.19;74903.47;4956698;28;102259;-74
2023/08/24 00:55:53;;;;;;;;;12.75;12.75;;;;;-143.90;85.58;74905.53;4953454;28;103576;-74
2023/08/24 00:58:21;;;;;;;;;10.00;9.25;;;;;-143.90;85.67;74903.47;4957282;28;104014;-74
2023/08/24 01:00:50;;;;;;;;;12.50;12.50;;;;;-143.90;85.81;74903.47;4952963;28;104039;-74
2023/08/24 01:03:17;;;;;;;;;9.50;8.50;;;;;-143.90;86.01;74903.47;4940008;28;102762;-74
2023/08/24 01:05:45;;;;;;;;;5.50;5.50;;;;;-143.90;85.17;74899.34;4947353;28;102233;-73
2023/08/24 01:08:13;;;;;;;;;5.00;5.00;;;;;-143.90;84.35;74899.34;4962829;28;103053;-74
2023/08/24 01:11:04;;;;;;;;;6.00;5.50;;;;;-143.90;83.50;74899.34;4941768;28;104170;-74
2023/08/24 01:13:55;;;;;;;;;8.00;7.25;;;;;-143.90;85.04;74915.88;4948010;28;102587;-77
2023/08/24 01:16:31;;;;;;;;;9.00;9.00;;;;;-143.90;85.99;74924.13;4946883;28;104544;-76
2023/08/24 01:18:59;;;;;;;;;17.25;16.00;;;;;-143.90;86.81;74934.47;4951071;28;102567;-73
2023/08/24 01:21:29;;;;;;;;;11.50;9.00;;;;;-143.90;88.01;74940.69;4945099;28;104331;-73
2023/08/24 01:24:13;;;;;;;;;20.75;18.50;;;;;-143.90;88.64;74953.09;4951867;27;102408;-74
2023/08/24 01:26:41;;;;;;;;;16.75;15.25;;;;;-143.90;89.42;74946.88;4952144;27;102324;-74
2023/08/24 01:29:08;;;;;;;;;15.75;15.00;;;;;-143.90;89.17;74955.16;4959180;28;102312;-74
2023/08/24 01:31:35;;;;;;;;;15.75;14.00;;;;;-143.90;88.38;74965.50;4948467;28;104044;-75
2023/08/24 01:34:02;;;;;;;;;16.00;15.00;;;;;-143.90;88.03;74961.34;4955270;28;102708;-74
2023/08/24 01:36:28;;;;;;;;;15.50;13.25;;;;;-143.90;87.18;74957.22;4953926;28;102582;-74
2023/08/24 01:39:14;;;;;;;;;17.00;16.00;;;;;-143.90;86.79;74946.88;4953898;27;102504;-74
2023/08/24 01:41:48;;;;;;;;;12.75;11.50;;;;;-143.90;86.70;74940.69;4945421;28;108900;-74
2023/08/24 01:44:20;;;;;;;;;16.25;15.25;;;;;-143.90;86.67;74946.88;4948088;28;104425;-73
2023/08/24 01:46:49;;;;;;;;;19.00;16.75;;;;;-143.90;86.12;74955.16;4955634;28;104600;-74
2023/08/24 01:49:18;;;;;;;;;16.25;14.50;;;;;-143.90;86.59;74959.28;4941073;28;102616;-74
2023/08/24 01:51:46;;;;;;;;;12.75;12.75;;;;;-143.90;87.42;74973.75;4946363;28;104306;-74
2023/08/24 01:54:13;;;;;;;;;16.75;16.25;;;;;-143.90;87.79;74975.81;4957761;28;104198;-74
2023/08/24 01:56:39;;;;;;;;;12.75;12.00;;;;;-143.90;87.82;74982.03;4958367;28;102196;-74
2023/08/24 01:59:06;;;;;;;;;14.50;14.50;;;;;-143.90;88.29;74990.28;4942151;28;102799;-74
2023/08/24 02:01:33;;;;;;;;;17.75;17.75;;;;;-143.90;88.12;75010.97;4954420;28;104101;-74
2023/08/24 02:03:59;;;;;;;;;18.50;18.00;;;;;-143.90;88.81;75010.97;4964180;27;102613;-74
2023/08/24 02:06:27;;;;;;;;;19.00;17.50;;;;;-143.90;88.85;75008.91;4962113;27;102508;-74
2023/08/24 02:08:53;;;;;;;;;16.25;15.75;;;;;-143.90;87.89;75002.69;4955641;28;102692;-73
2023/08/24 02:11:20;;;;;;;;;18.00;16.50;;;;;-143.90;87.91;75006.84;4945222;28;104174;-74
2023/08/24 02:13:47;;;;;;;;;13.00;11.25;;;;;-143.90;87.65;75006.84;4952409;28;102435;-74
2023/08/24 02:16:13;;;;;;;;;10.00;10.00;;;;;-143.90;87.68;74990.28;4953123;27;102162;-73
2023/08/24 02:18:40;;;;;;;;;11.00;10.25;;;;;-143.90;86.92;74990.28;4950913;28;102356;-74
2023/08/24 02:21:08;;;;;;;;;8.50;7.75;;;;;-143.90;86.38;74979.97;4945245;27;104089;-74
2023/08/24 02:23:35;;;;;;;;;12.25;10.50;;;;;-143.90;85.77;74990.28;4946458;28;101966;-74
2023/08/24 02:26:02;;;;;;;;;10.50;10.25;;;;;-143.90;85.70;74994.44;4946561;28;103970;-74
2023/08/24 02:28:29;;;;;;;;;10.00;9.00;;;;;-143.90;85.84;74996.50;4949521;28;102447;-75
2023/08/24 02:31:01;;;;;;;;;12.75;12.00;;;;;-143.90;85.70;75002.69;4944531;28;104328;-73
2023/08/24 02:33:28;;;;;;;;;6.75;6.75;;;;;-143.90;85.39;75002.69;4946335;28;102141;-74
2023/08/24 02:35:54;;;;;;;;;7.25;7.25;;;;;-143.90;84.30;75002.69;4955653;28;102779;-74
2023/08/24 02:38:21;;;;;;;;;10.00;9.00;;;;;-143.90;83.54;75010.97;4947680;28;102623;-74
2023/08/24 02:40:47;;;;;;;;;14.50;13.00;;;;;-143.90;83.24;75019.22;4944750;28;104024;-74
2023/08/24 02:43:14;;;;;;;;;10.00;10.00;;;;;-143.90;84.06;75025.44;4955432;28;103034;-74
2023/08/24 02:45:40;;;;;;;;;11.75;11.25;;;;;-143.90;84.56;75031.63;4957631;28;102388;-74
2023/08/24 02:48:07;;;;;;;;;11.50;11.50;;;;;-143.90;85.42;75041.97;4955143;28;101862;-74
2023/08/24 02:50:34;;;;;;;;;10.25;10.00;;;;;-143.90;86.15;75048.19;4961617;28;103953;-74
2023/08/24 02:53:01;;;;;;;;;10.75;10.75;;;;;-143.90;86.76;75041.97;4960168;28;102398;-75
2023/08/24 02:55:32;;;;;;;;;10.50;9.00;;;;;-143.90;86.23;75039.91;4953386;28;102251;-74
2023/08/24 02:57:58;;;;;;;;;6.50;5.75;;;;;-143.90;86.28;75031.63;4962551;28;102225;-74
2023/08/24 03:00:25;;;;;;;;;4.75;4.75;;;;;-143.90;85.38;75031.63;4947340;28;108839;-74
2023/08/24 03:02:51;;;;;;;;;6.00;5.50;;;;;-143.90;86.19;75044.03;4952108;28;102054;-74
2023/08/24 03:05:18;;;;;;;;;6.00;6.00;;;;;-143.90;86.11;75048.19;4942649;28;103394;-74
2023/08/24 03:07:45;;;;;;;;;8.00;7.00;;;;;-143.90;86.60;75046.09;4940070;28;102530;-74
2023/08/24 03:10:11;;;;;;;;;8.75;8.00;;;;;-143.90;86.21;75039.91;4947363;28;104016;-74
2023/08/24 03:12:38;;;;;;;;;6.00;5.25;;;;;-143.90;85.77;75041.97;4939704;28;102258;-74
2023/08/24 03:15:05;;;;;;;;;4.75;4.25;;;;;-143.90;85.62;75039.91;4965714;28;102107;-74
2023/08/24 03:17:32;;;;;;;;;4.50;4.50;;;;;-143.90;86.23;75056.44;4944824;28;105390;-74
2023/08/24 03:19:59;;;;;;;;;9.00;9.00;;;;;-143.90;86.75;75056.44;4946419;28;102958;-74
2023/08/24 03:22:25;;;;;;;;;13.25;13.25;;;;;-143.90;87.09;75054.38;4942286;28;102185;-74
2023/08/24 03:24:52;;;;;;;;;18.50;18.00;;;;;-143.90;87.88;75052.31;4955816;28;102291;-79
2023/08/24 03:27:18;;;;;;;;;11.50;11.00;;;;;-143.90;87.52;75052.31;4958212;28;102660;-74
2023/08/24 03:29:45;;;;;;;;;10.25;10.25;;;;;-143.90;87.89;75044.03;4949979;27;104038;-75
2023/08/24 03:32:12;;;;;;;;;6.00;6.00;;;;;-143.90;86.99;75035.78;4950860;28;103954;-74
2023/08/24 03:34:40;;;;;;;;;6.00;6.00;;;;;-143.90;85.98;75037.84;4957116;28;102246;-74
2023/08/24 03:37:06;;;;;;;;;8.00;8.00;;;;;-143.90;84.98;75035.78;4961481;28;102022;-74
2023/08/24 03:39:33;;;;;;;;;8.50;8.50;;;;;-143.90;84.26;75046.09;4951971;28;104138;-74
2023/08/24 03:41:59;;;;;;;;;7.00;6.00;;;;;-143.90;84.33;75050.25;4946833;28;102343;-74
2023/08/24 03:44:26;;;;;;;;;4.00;4.00;;;;;-143.90;84.55;75052.31;4945751;28;102512;-74
2023/08/24 03:46:53;;;;;;;;;7.00;5.25;;;;;-143.90;84.70;75054.38;4947555;28;102526;-74
2023/08/24 03:49:19;;;;;;;;;5.00;5.00;;;;;-143.90;84.95;75046.09;4958733;28;108675;-74
2023/08/24 03:51:46;;;;;;;;;6.00;6.00;;;;;-143.90;85.28;75048.19;4948323;28;102456;-74
2023/08/24 03:54:12;;;;;;;;;5.25;5.25;;;;;-143.90;84.63;75050.25;4946375;28;102447;-74
2023/08/24 03:56:39;;;;;;;;;7.00;6.25;;;;;-143.90;83.92;75044.03;4946796;28;103922;-74
2023/08/24 03:59:06;;;;;;;;;6.00;5.25;;;;;-143.90;83.60;75056.44;4943972;28;104319;-74
2023/08/24 04:01:32;;;;;;;;;5.50;4.75;;;;;-143.90;84.42;75056.44;4959139;28;102432;-74
2023/08/24 04:03:59;;;;;;;;;4.00;4.00;;;;;-143.90;84.44;75056.44;4957805;27;102426;-74
2023/08/24 04:06:27;;;;;;;;;5.00;4.50;;;;;-143.90;85.01;75058.50;4952393;28;102366;-74
2023/08/24 04:08:54;;;;;;;;;4.00;4.00;;;;;-143.90;85.22;75058.50;4942674;28;104508;-75
2023/08/24 04:11:20;;;;;;;;;4.00;4.00;;;;;-143.90;84.94;75056.44;4939625;28;104141;-74
2023/08/24 04:13:47;;;;;;;;;3.00;3.00;;;;;-143.90;85.12;75046.09;4946159;27;105916;-74
2023/08/24 04:16:13;;;;;;;;;3.50;3.50;;;;;-143.90;85.65;75039.91;4941223;28;102499;-76
2023/08/24 04:18:40;;;;;;;;;5.00;4.50;;;;;-143.90;85.40;75035.78;4940760;28;103638;-76
2023/08/24 04:21:07;;;;;;;;;3.00;3.00;;;;;-143.90;85.74;75023.38;4936156;28;102647;-76
2023/08/24 04:23:33;;;;;;;;;4.50;3.50;;;;;-143.90;85.11;75019.22;4946117;28;101928;-76
2023/08/24 04:26:00;;;;;;;;;6.25;4.75;;;;;-143.90;85.24;75021.31;4943519;28;102545;-76
2023/08/24 04:28:26;;;;;;;;;5.25;4.00;;;;;-143.90;84.63;75015.09;4946269;28;104111;-76
2023/08/24 04:30:55;;;;;;;;;4.75;4.75;;;;;-143.90;84.87;75017.16;4941669;28;104002;-76
2023/08/24 04:33:22;;;;;;;;;4.00;3.50;;;;;-143.90;85.18;75017.16;4946986;28;104351;-77
2023/08/24 04:35:50;;;;;;;;;5.00;4.50;;;;;-143.90;85.22;75008.91;4956656;28;102584;-76
2023/08/24 04:38:16;;;;;;;;;6.50;4.75;;;;;-143.90;85.08;74994.44;4947419;28;104102;-76
2023/08/24 04:40:55;;;;;;;;;4.50;4.50;;;;;-143.90;85.12;74994.44;4946851;28;103493;-76
2023/08/24 04:43:24;;;;;;;;;5.75;5.00;;;;;-143.90;85.44;74990.28;4943126;28;103143;-76
2023/08/24 04:45:52;;;;;;;;;4.25;4.25;;;;;-143.90;85.01;74977.88;4956544;28;102410;-76
2023/08/24 04:48:23;;;;;;;;;4.00;4.00;;;;;-143.90;85.22;74979.97;4949305;28;104121;-76
2023/08/24 04:50:50;;;;;;;;;6.00;5.00;;;;;-143.90;85.72;74984.09;4949419;28;103138;-76
2023/08/24 04:53:18;;;;;;;;;5.00;5.00;;;;;-143.90;85.90;74963.41;4967034;28;102092;-76
2023/08/24 04:55:45;;;;;;;;;5.25;4.50;;;;;-143.90;86.09;74957.22;4946419;28;103885;-78
2023/08/24 04:58:13;;;;;;;;;4.50;4.50;;;;;-143.90;85.97;74948.94;4938438;28;108534;-76
2023/08/24 05:00:40;;;;;;;;;5.00;5.00;;;;;-143.90;85.52;74932.41;4944761;28;102368;-76
2023/08/24 05:03:08;;;;;;;;;4.00;4.00;;;;;-143.90;85.34;74924.13;4941896;28;102965;-76
2023/08/24 05:05:37;;;;;;;;;6.25;6.25;;;;;-143.90;85.74;74911.72;4957760;28;102471;-76
2023/08/24 05:08:11;;;;;;;;;8.25;7.25;;;;;-143.90;86.10;74901.41;4945743;28;104211;-77
2023/08/24 05:10:39;;;;;;;;;8.75;8.00;;;;;-143.90;85.82;74882.78;4948738;28;102206;-76
2023/08/24 05:13:06;;;;;;;;;9.50;7.25;;;;;-143.90;86.03;74870.38;4942169;28;102380;-76
2023/08/24 05:15:32;;;;;;;;;9.25;7.50;;;;;-143.90;85.57;74860.06;4942565;28;102317;-78
2023/08/24 05:17:59;;;;;;;;;10.75;9.00;;;;;-143.90;85.55;74849.72;4958933;27;104174;-81
2023/08/24 05:20:26;;;;;;;;;6.00;6.00;;;;;-143.90;86.17;74826.97;4959533;27;102405;-78
2023/08/24 05:22:54;;;;;;;;;10.50;9.75;;;;;-143.90;85.50;74804.25;4947826;28;102305;-78
2023/08/24 05:25:22;;;;;;;;;12.25;12.00;;;;;-143.90;85.17;74783.56;4959148;28;102707;-79
2023/08/24 05:27:49;;;;;;;;;11.00;11.00;;;;;-143.90;84.40;74764.97;4963161;28;104181;-79
2023/08/24 05:30:16;;;;;;;;;15.75;15.50;;;;;-143.90;83.73;74750.50;4958879;28;102295;-79
2023/08/24 05:32:43;;;;;;;;;8.00;7.00;;;;;-143.90;83.92;74729.81;4955332;28;103599;-79
2023/08/24 05:35:10;;;;;;;;;8.50;8.00;;;;;-143.90;83.40;74707.09;4955113;28;102311;-78
2023/08/24 05:37:38;;;;;;;;;10.00;9.00;;;;;-143.90;82.99;74671.94;4965159;28;104399;-78
2023/08/24 05:40:05;;;;;;;;;21.50;16.25;;;;;-143.90;81.44;74622.34;4941295;27;102260;-79
2023/08/24 05:42:31;;;;;;;;;12.25;11.25;;;;;-143.90;79.37;74578.91;4961835;28;102358;-79
2023/08/24 05:44:58;;;;;;;;;24.75;23.00;;;;;-143.90;78.00;74537.56;4955036;28;102094;-79
2023/08/24 05:47:25;;;;;;;;;32.50;30.50;;;;;-143.90;77.40;74483.84;4960594;27;104052;-78
2023/08/24 05:49:51;;;;;;;;;28.50;27.50;;;;;-143.90;75.74;74446.63;4954870;28;102403;-79
2023/08/24 05:52:18;;;;;;;;;17.25;17.25;;;;;-143.90;74.01;74421.81;4949016;27;102272;-79
2023/08/24 05:54:45;;;;;;;;;15.67;14.67;;;;;-143.90;72.41;74382.56;4959793;27;102137;-79
2023/08/24 05:57:11;;;;;;;;;21.50;19.75;;;;;-143.90;71.97;74349.47;4951887;28;109166;-79
2023/08/24 05:59:38;;;;;;;;;31.50;29.75;;;;;-143.90;72.28;74314.34;4952089;28;102454;-78
2023/08/24 06:02:05;;;;;;;;;31.25;30.00;;;;;-143.90;72.07;74285.41;4953063;28;102457;-79
2023/08/24 06:04:31;;;;;;;;;27.75;25.25;;;;;-143.90;69.34;74281.28;4956752;28;102499;-78
2023/08/24 06:06:58;;;;;;;;;23.33;20.67;;;;;-143.90;68.64;74260.59;4951371;28;104148;-77
2023/08/24 06:09:25;;;;;;;;;18.00;17.00;;;;;-143.90;67.78;74239.94;4963551;28;102028;-78
2023/08/24 06:11:52;;;;;;;;;27.25;26.75;;;;;-143.90;67.82;74221.31;4946482;28;102159;-78
2023/08/24 06:14:19;;;;;;;;;38.75;34.00;;;;;-143.90;69.67;74190.31;4946502;27;102608;-77
2023/08/24 06:16:45;;;;;;;;;38.25;33.75;;;;;-143.90;67.92;74163.47;4951926;27;104331;-78
2023/08/24 06:19:12;;;;;;;;;28.50;25.75;;;;;-143.90;65.30;74155.19;4946549;28;102437;-78
2023/08/24 06:21:39;;;;;;;;;22.00;20.67;;;;;-143.90;64.93;74144.84;4945556;28;102232;-78
2023/08/24 06:24:05;;;;;;;;;36.50;31.25;;;;;-143.90;65.22;74124.19;4957268;28;102350;-78
2023/08/24 06:26:32;;;;;;;;;27.50;25.25;;;;;-143.90;63.16;74097.31;4945713;28;104076;-79
2023/08/24 06:28:59;;;;;;;;;17.67;16.67;;;;;-143.90;62.06;74086.97;4952799;28;104378;-78
2023/08/24 06:31:25;;;;;;;;;25.67;22.00;;;;;-143.90;62.91;74072.50;4953336;28;102431;-78
2023/08/24 06:33:52;;;;;;;;;15.67;13.67;;;;;-143.90;60.83;74058.06;4948248;28;102648;-78
2023/08/24 06:36:19;;;;;;;;;19.33;18.67;;;;;-143.90;62.08;74037.38;4949384;28;105196;-78
2023/08/24 06:38:46;;;;;;;;;24.00;24.00;;;;;-143.90;61.47;74029.13;4958772;28;102355;-78
2023/08/24 06:41:13;;;;;;;;;24.67;24.33;;;;;-143.90;60.63;74016.72;4948100;28;102246;-78
2023/08/24 06:43:39;;;;;;;;;12.00;11.00;;;;;-143.90;59.26;74020.84;4948456;28;102065;-78
2023/08/24 06:46:09;;;;;;;;;13.33;11.00;;;;;-143.90;59.09;74006.38;4957432;28;104134;-78
2023/08/24 06:48:39;;;;;;;;;9.67;9.67;;;;;-143.90;58.98;74002.25;4954159;28;102189;-77
2023/08/24 06:51:05;;;;;;;;;13.67;12.00;;;;;-143.90;58.21;73985.72;4956920;28;102280;-78
2023/08/24 06:53:32;;;;;;;;;11.00;11.00;;;;;-143.90;57.71;73993.97;4955730;28;102777;-78
2023/08/24 06:55:59;;;;;;;;;8.33;8.00;;;;;-143.90;57.28;73989.84;4963730;28;104069;-78
2023/08/24 06:58:25;;;;;;;;;12.33;12.33;;;;;-143.90;59.84;73983.66;4951140;28;102379;-78
2023/08/24 07:00:52;;;;;;;;;14.00;13.00;;;;;-143.90;60.05;73989.84;4943607;28;102369;-78
2023/08/24 07:03:19;;;;;;;;;11.67;10.00;;;;;-143.90;58.47;73985.72;4950085;28;102318;-78
2023/08/24 07:05:47;;;;;;;;;12.00;12.00;;;;;-143.90;59.66;73969.19;4938201;27;105006;-78
2023/08/24 07:08:13;;;;;;;;;14.67;14.00;;;;;-143.90;60.86;73977.44;4941818;28;101937;-78
2023/08/24 07:10:41;;;;;;;;;10.00;10.00;;;;;-143.90;59.33;73965.03;4937018;27;102400;-78
2023/08/24 07:13:09;;;;;;;;;9.67;8.33;;;;;-143.90;58.56;73954.72;4956323;28;102328;-78
2023/08/24 07:15:35;;;;;;;;;14.33;13.67;;;;;-143.90;60.50;73956.78;4949201;28;104379;-79
2023/08/24 07:18:02;;;;;;;;;18.33;17.33;;;;;-143.90;58.32;73948.50;4946587;27;102399;-77
2023/08/24 07:20:29;;;;;;;;;11.00;10.00;;;;;-143.90;58.26;73956.78;4950149;28;101827;-77
2023/08/24 07:22:57;;;;;;;;;10.67;10.00;;;;;-143.90;56.80;73944.38;4963260;28;102416;-78
2023/08/24 07:25:24;;;;;;;;;10.33;10.00;;;;;-143.90;59.89;73936.09;4953558;28;104041;-78
2023/08/24 07:27:57;;;;;;;;;9.33;8.67;;;;;-143.90;58.65;73940.25;4953833;28;101949;-77
2023/08/24 07:30:26;;;;;;;;;10.33;9.33;;;;;-143.90;58.77;73934.03;4950513;28;102439;-78
2023/08/24 07:33:01;;;;;;;;;7.00;6.67;;;;;-143.90;59.27;73923.72;4956646;28;102405;-78
2023/08/24 07:35:28;;;;;;;;;9.67;9.00;;;;;-143.90;58.71;73923.72;4952199;28;104117;-78
2023/08/24 07:37:56;;;;;;;;;12.67;12.00;;;;;-143.90;56.53;73921.63;4948422;28;102145;-77
2023/08/24 07:40:23;;;;;;;;;11.00;10.67;;;;;-143.90;57.37;73948.50;4955292;28;102030;-77
2023/08/24 07:42:56;;;;;;;;;9.67;9.67;;;;;-143.90;58.55;73927.84;4957925;28;102531;-78
2023/08/24 07:45:23;;;;;;;;;8.00;8.00;;;;;-143.90;57.83;73907.16;4953137;27;104279;-78
2023/08/24 07:47:50;;;;;;;;;9.00;8.33;;;;;-143.90;56.89;73892.69;4954593;28;102063;-78
2023/08/24 07:50:17;;;;;;;;;12.00;11.00;;;;;-143.90;57.07;73882.38;4960207;28;102395;-78
2023/08/24 07:52:44;;;;;;;;;8.00;7.00;;;;;-143.90;56.53;73869.97;4960974;28;102466;-77
2023/08/24 07:55:11;;;;;;;;;10.00;8.00;;;;;-143.90;55.53;73867.91;4956594;28;104091;-78
2023/08/24 07:57:38;;;;;;;;;5.67;5.00;;;;;-143.90;53.49;73861.69;4943251;28;102244;-78
2023/08/24 08:00:06;;;;;;;;;7.33;7.00;;;;;-143.90;54.22;73843.09;4955341;28;102336;-78
2023/08/24 08:02:37;;;;;;;;;5.00;5.00;;;;;-143.90;52.38;73838.97;4960416;28;101980;-78
2023/08/24 08:05:07;;;;;;;;;5.33;5.33;;;;;-143.90;52.50;73828.63;4946122;28;109003;-78
2023/08/24 08:07:34;;;;;;;;;5.00;4.00;;;;;-143.90;52.95;73832.78;4958853;28;102174;-79
2023/08/24 08:10:01;;;;;;;;;7.67;7.67;;;;;-143.90;51.72;73849.31;4953485;28;102633;-77
2023/08/24 08:12:27;;;;;;;;;9.67;9.67;;;;;-143.90;52.51;73834.84;4949906;28;102505;-78
2023/08/24 08:14:54;;;;;;;;;9.33;8.00;;;;;-143.90;53.67;73816.25;4947711;28;104292;-78
2023/08/24 08:17:20;;;;;;;;;9.00;9.00;;;;;-143.90;54.50;73830.69;4956815;28;102249;-78
2023/08/24 08:19:47;;;;;;;;;7.67;7.33;;;;;-143.90;51.90;73822.44;4961931;28;101926;-78
2023/08/24 08:22:14;;;;;;;;;13.67;13.67;;;;;-143.90;51.61;73853.44;4949019;28;101998;-78
2023/08/24 08:24:40;;;;;;;;;10.67;10.67;;;;;-143.90;52.05;73834.84;4948454;28;104066;-79
2023/08/24 08:27:07;;;;;;;;;8.67;8.67;;;;;-143.90;51.63;73816.25;4953638;28;101979;-79
2023/08/24 08:29:34;;;;;;;;;10.33;9.00;;;;;-143.90;50.36;73810.03;4952327;28;102065;-78
2023/08/24 08:32:01;;;;;;;;;11.00;9.00;;;;;-143.90;50.47;73772.84;4955045;28;102313;-78
2023/08/24 08:34:27;;;;;;;;;7.33;7.33;;;;;-143.90;49.39;73754.25;4953114;28;104660;-78
2023/08/24 08:36:54;;;;;;;;;7.00;7.00;;;;;-143.90;48.42;73741.84;4945702;28;102188;-78
2023/08/24 08:39:21;;;;;;;;;7.00;6.00;;;;;-143.90;48.26;73735.63;4955837;28;103780;-79
2023/08/24 08:41:50;;;;;;;;;10.00;10.00;;;;;-143.90;45.82;73772.84;4954937;28;102239;-78
2023/08/24 08:44:18;;;;;;;;;9.00;9.00;;;;;-143.90;45.85;73745.97;4941932;28;104062;-79
2023/08/24 08:46:47;;;;;;;;;7.33;7.33;;;;;-143.90;46.51;73733.56;4948679;28;102029;-78
2023/08/24 08:49:17;;;;;;;;;11.33;10.67;;;;;-143.90;45.03;73727.38;4943752;28;102458;-77
2023/08/24 08:51:43;;;;;;;;;9.00;8.00;;;;;-143.90;46.85;73721.16;4948594;28;102168;-78
2023/08/24 08:54:11;;;;;;;;;6.00;6.00;;;;;-143.90;48.97;73700.50;4951716;28;104239;-78
2023/08/24 08:56:38;;;;;;;;;9.67;8.33;;;;;-143.90;45.93;73712.91;4963092;28;102058;-78
2023/08/24 08:59:08;;;;;;;;;6.67;6.00;;;;;-143.90;45.67;73688.09;4939115;28;102360;-78
2023/08/24 09:01:35;;;;;;;;;5.67;5.67;;;;;-143.90;44.01;73679.84;4938361;28;105520;-78
2023/08/24 09:04:02;;;;;;;;;7.00;6.00;;;;;-143.90;45.11;73669.50;4950759;28;104200;-78
2023/08/24 09:06:29;;;;;;;;;5.00;5.00;;;;;-143.90;44.98;73655.03;4944366;28;102343;-77
2023/08/24 09:08:56;;;;;;;;;5.00;4.00;;;;;-143.90;44.46;73646.78;4950530;28;102194;-78
2023/08/24 09:11:23;;;;;;;;;7.67;7.67;;;;;-143.90;40.79;73669.50;4949155;28;102379;-77
2023/08/24 09:13:50;;;;;;;;;9.33;9.00;;;;;-143.90;45.66;73681.91;4963420;28;108718;-77
2023/08/24 09:16:17;;;;;;;;;7.67;6.00;;;;;-143.90;42.50;73665.38;4949170;28;101956;-78
2023/08/24 09:18:46;;;;;;;;;7.33;6.67;;;;;-143.90;42.71;73644.69;4947821;28;102237;-78
2023/08/24 09:21:15;;;;;;;;;7.00;5.00;;;;;-143.90;42.80;73630.25;4954153;28;102036;-78
2023/08/24 09:24:03;;;;;;;;;8.00;8.00;;;;;-143.90;41.63;73646.78;4949475;28;104343;-79
2023/08/24 09:26:31;;;;;;;;;7.00;7.00;;;;;-143.90;41.11;73657.09;4946801;28;102627;-77
2023/08/24 09:28:58;;;;;;;;;6.67;6.00;;;;;-143.90;42.59;73630.25;4947355;28;102225;-78
2023/08/24 09:31:38;;;;;;;;;5.67;5.67;;;;;-143.90;42.49;73609.56;4954444;28;102056;-78
2023/08/24 09:34:06;;;;;;;;;5.00;5.00;;;;;-143.90;40.71;73603.38;4952756;28;108794;-77
2023/08/24 09:36:34;;;;;;;;;7.33;7.00;;;;;-143.90;40.64;73593.03;4948955;28;101945;-78
2023/08/24 09:39:04;;;;;;;;;7.67;6.67;;;;;-143.90;40.65;73590.97;4950580;28;102360;-78
2023/08/24 09:41:39;;;;;;;;;5.00;5.00;;;;;-143.90;40.12;73584.78;4952421;28;101866;-77
2023/08/24 09:44:07;;;;;;;;;4.33;4.00;;;;;-143.90;40.83;73570.31;4953953;28;104180;-78
2023/08/24 09:46:35;;;;;;;;;8.00;7.00;;;;;-143.90;40.00;73572.38;4947874;28;102246;-77
2023/08/24 09:49:05;;;;;;;;;3.33;3.33;;;;;-143.90;40.35;73568.25;4952246;28;102297;-78
2023/08/24 09:51:36;;;;;;;;;7.33;7.00;;;;;-143.90;41.40;73559.97;4953302;28;101989;-78
2023/08/24 09:54:08;;;;;;;;;5.67;5.67;;;;;-143.90;41.11;73551.72;4949135;28;104590;-78
2023/08/24 09:56:39;;;;;;;;;6.00;5.00;;;;;-143.90;39.44;73551.72;4952543;28;102219;-78
2023/08/24 09:59:16;;;;;;;;;8.67;7.67;;;;;-143.90;39.39;73549.63;4946649;28;102576;-77
2023/08/24 10:01:49;;;;;;;;;5.00;5.00;;;;;-143.90;39.57;73531.03;4957793;28;102068;-77
2023/08/24 10:04:23;;;;;;;;;4.00;4.00;;;;;-143.90;38.92;73526.91;4954495;27;104152;-79
2023/08/24 10:07:05;;;;;;;;;5.67;4.67;;;;;-143.90;38.47;73510.38;4954389;28;102755;-79
2023/08/24 10:09:39;;;;;;;;;4.33;4.33;;;;;-143.90;38.37;73508.31;4948789;28;103200;-78
2023/08/24 10:12:07;;;;;;;;;6.00;6.00;;;;;-143.90;38.08;73497.97;4960978;28;103696;-77
2023/08/24 10:14:36;;;;;;;;;4.00;4.00;;;;;-143.90;37.62;73493.84;4955938;28;104310;-78
2023/08/24 10:17:04;;;;;;;;;2.00;2.00;;;;;-143.90;38.96;73489.72;4962786;28;102235;-78
2023/08/24 10:19:31;;;;;;;;;6.00;6.00;;;;;-143.90;38.71;73495.91;4953726;28;102817;-78
2023/08/24 10:22:00;;;;;;;;;7.33;6.33;;;;;-143.90;37.32;73518.66;4947825;28;102454;-77
2023/08/24 10:24:28;;;;;;;;;9.33;9.00;;;;;-143.90;39.11;73518.66;4951502;28;104057;-79
2023/08/24 10:26:56;;;;;;;;;7.67;7.67;;;;;-143.90;39.30;73491.78;4968494;28;102462;-78
2023/08/24 10:29:24;;;;;;;;;6.00;6.00;;;;;-143.90;37.93;73491.78;4961269;27;101908;-78
2023/08/24 10:31:51;;;;;;;;;6.67;6.00;;;;;-143.90;37.54;73479.38;4954338;28;102055;-77
2023/08/24 10:34:18;;;;;;;;;8.00;5.33;;;;;-143.90;37.84;73497.97;4955801;28;104219;-77
2023/08/24 10:36:47;;;;;;;;;5.00;5.00;;;;;-143.90;38.72;73481.44;4953852;28;102309;-78
2023/08/24 10:39:15;;;;;;;;;7.67;6.33;;;;;-143.90;38.06;73489.72;4952934;28;102425;-78
2023/08/24 10:41:50;;;;;;;;;11.00;11.00;;;;;-143.90;38.39;73504.19;4957959;28;102396;-78
2023/08/24 10:44:25;;;;;;;;;6.33;5.67;;;;;-143.90;37.76;73475.25;4953672;28;104585;-79
2023/08/24 10:47:23;;;;;;;;;9.00;8.67;;;;;-143.90;38.14;73479.38;4945344;28;102526;-78
2023/08/24 10:50:01;;;;;;;;;6.67;6.00;;;;;-143.90;38.19;73469.03;4954956;28;102528;-79
2023/08/24 10:52:36;;;;;;;;;6.33;5.00;;;;;-143.90;37.03;73440.13;4939252;28;102468;-77
2023/08/24 10:55:04;;;;;;;;;5.00;5.00;;;;;-143.90;39.03;73425.66;4946811;28;104161;-79
2023/08/24 10:57:39;;;;;;;;;8.00;7.33;;;;;-143.90;37.61;73446.31;4956841;27;102192;-78
2023/08/24 11:00:09;;;;;;;;;9.33;8.00;;;;;-143.90;38.43;73415.31;4959652;27;102312;-77
2023/08/24 11:02:46;;;;;;;;;7.67;7.33;;;;;-143.90;36.92;73450.44;4952351;28;104251;-78
2023/08/24 11:05:17;;;;;;;;;7.67;7.00;;;;;-143.90;38.51;73425.66;4934079;28;109004;-78
2023/08/24 11:07:56;;;;;;;;;8.00;6.00;;;;;-143.90;37.32;73419.44;4947276;28;103079;-77